createdAt,value
2023-04-11T00:01:59.923Z,8.92
2023-04-11T00:05:03.366Z,8.88
2023-04-11T00:08:06.534Z,8.86
2023-04-11T00:11:09.548Z,8.85
2023-04-11T00:14:12.780Z,8.86
2023-04-11T00:20:30.522Z,8.85
2023-04-11T00:23:32.236Z,8.81
2023-04-11T00:26:34.006Z,8.79
2023-04-11T00:29:36.399Z,8.77
2023-04-11T00:32:38.042Z,8.73
2023-04-11T00:35:40.142Z,8.69
2023-04-11T00:38:42.007Z,8.66
2023-04-11T00:41:43.882Z,8.64
2023-04-11T00:44:45.907Z,8.61
2023-04-11T00:47:48.909Z,8.60
2023-04-11T00:50:50.851Z,8.57
2023-04-11T00:53:52.704Z,8.56
2023-04-11T00:56:57.318Z,8.51
2023-04-11T01:00:01.150Z,8.49
2023-04-11T01:03:03.310Z,8.45
2023-04-11T01:06:06.986Z,8.41
2023-04-11T01:09:08.797Z,8.38
2023-04-11T01:12:11.838Z,8.36
2023-04-11T01:15:13.983Z,8.34
2023-04-11T01:18:15.726Z,8.31
2023-04-11T01:21:18.979Z,8.27
2023-04-11T01:24:20.827Z,8.24
2023-04-11T01:27:22.835Z,8.21
2023-04-11T01:30:24.672Z,8.20
2023-04-11T01:33:26.823Z,8.15
2023-04-11T01:36:31.665Z,8.08
2023-04-11T01:39:33.348Z,8.04
2023-04-11T01:42:37.255Z,8.02
2023-04-11T01:45:39.814Z,7.99
2023-04-11T01:48:42.717Z,7.99
2023-04-11T01:51:45.537Z,8.00
2023-04-11T01:54:47.266Z,8.00
2023-04-11T01:57:48.946Z,7.99
2023-04-11T02:00:50.712Z,7.97
2023-04-11T02:03:54.535Z,7.94
2023-04-11T02:06:56.310Z,7.93
2023-04-11T02:09:58.548Z,7.91
2023-04-11T02:13:01.170Z,7.91
2023-04-11T02:16:11.033Z,7.93
2023-04-11T02:19:13.409Z,7.93
2023-04-11T02:22:15.626Z,7.92
2023-04-11T02:25:17.319Z,7.92
2023-04-11T02:28:19.061Z,7.91
2023-04-11T02:31:20.790Z,7.90
2023-04-11T02:34:22.606Z,7.89
2023-04-11T02:37:25.494Z,7.87
2023-04-11T02:40:27.283Z,7.86
2023-04-11T02:43:28.997Z,7.84
2023-04-11T02:46:30.763Z,7.85
2023-04-11T02:49:33.566Z,7.83
2023-04-11T02:52:36.967Z,7.83
2023-04-11T02:55:38.675Z,7.84
2023-04-11T02:58:41.388Z,7.84
2023-04-11T03:01:45.114Z,7.83
2023-04-11T03:04:46.948Z,7.83
2023-04-11T03:07:53.657Z,7.83
2023-04-11T03:10:55.420Z,7.84
2023-04-11T03:13:58.839Z,7.85
2023-04-11T03:17:00.567Z,7.84
2023-04-11T03:20:06.614Z,7.82
2023-04-11T03:23:09.016Z,7.79
2023-04-11T03:26:12.472Z,7.80
2023-04-11T03:29:14.194Z,7.77
2023-04-11T03:32:26.424Z,7.75
2023-04-11T03:35:28.494Z,7.72
2023-04-11T03:38:30.439Z,7.69
2023-04-11T03:41:32.207Z,7.65
2023-04-11T03:44:34.236Z,7.61
2023-04-11T03:47:37.879Z,7.58
2023-04-11T03:50:40.034Z,7.55
2023-04-11T03:53:41.823Z,7.55
2023-04-11T03:57:02.178Z,7.53
2023-04-11T04:00:05.659Z,7.49
2023-04-11T04:03:16.898Z,7.44
2023-04-11T04:06:19.671Z,7.43
2023-04-11T04:09:23.459Z,7.44
2023-04-11T04:12:28.835Z,7.45
2023-04-11T04:16:00.657Z,7.48
2023-04-11T04:19:04.120Z,7.49
2023-04-11T04:22:11.033Z,7.48
2023-04-11T04:25:16.264Z,7.48
2023-04-11T04:28:21.744Z,7.49
2023-04-11T04:31:29.190Z,7.49
2023-04-11T04:34:46.156Z,7.50
2023-04-11T04:37:49.421Z,7.53
2023-04-11T04:41:21.452Z,7.53
2023-04-11T04:44:28.788Z,7.56
2023-04-11T04:47:35.688Z,7.59
2023-04-11T04:50:37.823Z,7.62
2023-04-11T04:53:39.658Z,7.64
2023-04-11T04:56:43.396Z,7.64
2023-04-11T04:59:46.479Z,7.65
2023-04-11T05:02:49.299Z,7.68
2023-04-11T05:05:51.603Z,7.69
2023-04-11T05:08:56.569Z,7.71
2023-04-11T05:11:58.358Z,7.72
2023-04-11T05:15:00.176Z,7.75
2023-04-11T05:18:03.277Z,7.77
2023-04-11T05:21:07.381Z,7.79
2023-04-11T05:24:11.472Z,7.83
2023-04-11T05:27:13.641Z,7.84
2023-04-11T05:30:16.501Z,7.89
2023-04-11T05:33:18.682Z,7.94
2023-04-11T05:36:21.996Z,8.00
2023-04-11T05:39:23.809Z,8.07
2023-04-11T05:42:25.539Z,8.14
2023-04-11T05:45:27.441Z,8.19
2023-04-11T05:48:29.342Z,8.28
2023-04-11T05:51:31.083Z,8.36
2023-04-11T05:54:35.015Z,8.43
2023-04-11T05:57:36.703Z,8.51
2023-04-11T06:00:38.839Z,8.58
2023-04-11T06:03:52.570Z,8.66
2023-04-11T06:06:55.222Z,8.74
2023-04-11T06:09:56.782Z,8.81
2023-04-11T06:12:58.555Z,8.89
2023-04-11T06:16:00.810Z,8.94
2023-04-11T06:19:03.882Z,9.00
2023-04-11T06:22:05.677Z,9.06
2023-04-11T06:25:07.954Z,9.12
2023-04-11T06:28:09.593Z,9.19
2023-04-11T06:31:11.375Z,9.25
2023-04-11T06:34:12.976Z,9.30
2023-04-11T06:37:14.604Z,9.39
2023-04-11T06:40:16.644Z,9.46
2023-04-11T06:43:22.418Z,9.52
2023-04-11T06:46:24.267Z,9.61
2023-04-11T06:49:27.520Z,9.75
2023-04-11T06:52:29.897Z,9.89
2023-04-11T06:55:31.536Z,10.03
2023-04-11T06:58:33.179Z,10.13
2023-04-11T07:01:38.615Z,10.20
2023-04-11T07:04:40.756Z,10.26
2023-04-11T07:07:42.548Z,10.33
2023-04-11T07:10:44.190Z,10.40
2023-04-11T07:13:46.602Z,10.47
2023-04-11T07:16:48.440Z,10.53
2023-04-11T07:19:50.771Z,10.69
2023-04-11T07:22:53.641Z,10.81
2023-04-11T07:25:55.293Z,10.86
2023-04-11T07:28:56.930Z,10.91
2023-04-11T07:31:58.729Z,10.96
2023-04-11T07:35:00.623Z,11.01
2023-04-11T07:38:02.326Z,11.07
2023-04-11T07:41:05.043Z,11.11
2023-04-11T07:44:07.271Z,11.15
2023-04-11T07:47:08.849Z,11.17
2023-04-11T07:50:10.878Z,11.17
2023-04-11T07:53:13.205Z,11.15
2023-04-11T07:56:14.981Z,11.13
2023-04-11T07:59:16.708Z,11.12
2023-04-11T08:02:18.506Z,11.11
2023-04-11T08:05:22.492Z,11.12
2023-04-11T08:08:25.317Z,11.13
2023-04-11T08:11:26.933Z,11.16
2023-04-11T08:14:28.717Z,11.18
2023-04-11T08:17:37.271Z,11.22
2023-04-11T08:20:40.210Z,11.26
2023-04-11T08:23:41.869Z,11.32
2023-04-11T08:26:44.180Z,11.39
2023-04-11T08:29:45.924Z,11.48
2023-04-11T08:32:48.972Z,11.58
2023-04-11T08:35:51.148Z,11.71
2023-04-11T08:38:54.661Z,11.89
2023-04-11T08:41:56.332Z,12.11
2023-04-11T08:45:01.270Z,12.31
2023-04-11T08:48:03.429Z,12.50
2023-04-11T08:51:05.812Z,12.65
2023-04-11T08:54:08.969Z,12.72
2023-04-11T08:57:14.377Z,12.78
2023-04-11T09:00:18.202Z,12.86
2023-04-11T09:03:20.150Z,12.89
2023-04-11T09:06:22.225Z,12.91
2023-04-11T09:09:31.875Z,12.91
2023-04-11T09:12:33.745Z,12.91
2023-04-11T09:15:35.734Z,12.89
2023-04-11T09:18:39.715Z,12.87
2023-04-11T09:21:49.407Z,12.84
2023-04-11T09:25:03.586Z,12.84
2023-04-11T09:28:10.161Z,12.85
2023-04-11T09:31:13.052Z,12.91
2023-04-11T09:34:22.969Z,13.00
2023-04-11T09:37:24.970Z,13.13
2023-04-11T09:40:31.143Z,13.26
2023-04-11T09:43:51.789Z,13.38
2023-04-11T09:46:58.284Z,13.48
2023-04-11T09:50:00.450Z,13.61
2023-04-11T09:53:03.021Z,13.69
2023-04-11T09:56:11.008Z,13.75
2023-04-11T09:59:16.715Z,13.80
2023-04-11T10:02:18.558Z,13.83
2023-04-11T10:05:27.956Z,13.87
2023-04-11T10:08:35.189Z,13.92
2023-04-11T10:11:40.714Z,14.00
2023-04-11T10:14:43.476Z,14.09
2023-04-11T10:18:13.928Z,14.16
2023-04-11T10:21:30.375Z,14.21
2023-04-11T10:24:32.084Z,14.22
2023-04-11T10:27:49.204Z,14.22
2023-04-11T10:31:03.555Z,14.25
2023-04-11T10:34:14.457Z,14.30
2023-04-11T10:37:17.266Z,14.36
2023-04-11T10:40:20.082Z,14.42
2023-04-11T10:43:21.837Z,14.51
2023-04-11T10:46:25.211Z,14.59
2023-04-11T10:49:37.040Z,14.69
2023-04-11T10:52:39.142Z,14.74
2023-04-11T10:55:50.737Z,14.75
2023-04-11T10:58:52.800Z,14.76
2023-04-11T11:01:55.502Z,14.81
2023-04-11T11:04:58.474Z,14.85
2023-04-11T11:08:00.472Z,14.90
2023-04-11T11:11:09.869Z,14.92
2023-04-11T11:14:27.438Z,15.00
2023-04-11T11:17:29.154Z,15.10
2023-04-11T11:20:30.983Z,15.23
2023-04-11T11:23:34.961Z,15.41
2023-04-11T11:26:40.969Z,15.62
2023-04-11T11:29:43.143Z,15.78
2023-04-11T11:32:45.022Z,15.95
2023-04-11T11:35:57.022Z,16.16
2023-04-11T11:38:59.098Z,16.38
2023-04-11T11:42:01.277Z,16.61
2023-04-11T11:45:13.294Z,16.84
2023-04-11T11:48:24.440Z,16.98
2023-04-11T11:51:26.736Z,17.12
2023-04-11T11:54:28.416Z,17.25
2023-04-11T11:57:30.049Z,17.31
2023-04-11T12:00:40.025Z,17.34
2023-04-11T12:03:41.973Z,17.30
2023-04-11T12:06:45.945Z,17.22
2023-04-11T12:09:48.658Z,17.12
2023-04-11T12:12:53.582Z,17.01
2023-04-11T12:15:57.972Z,16.93
2023-04-11T12:19:02.267Z,16.86
2023-04-11T12:22:04.125Z,16.78
2023-04-11T12:25:07.936Z,16.70
2023-04-11T12:28:12.476Z,16.64
2023-04-11T12:31:14.245Z,16.58
2023-04-11T12:34:20.290Z,16.51
2023-04-11T12:37:22.943Z,16.48
2023-04-11T12:40:25.110Z,16.45
2023-04-11T12:43:27.020Z,16.42
2023-04-11T12:46:29.418Z,16.37
2023-04-11T12:49:31.259Z,16.33
2023-04-11T12:52:33.679Z,16.30
2023-04-11T12:55:35.454Z,16.29
2023-04-11T12:58:37.202Z,16.35
2023-04-11T13:01:39.074Z,16.40
2023-04-11T13:04:41.116Z,16.39
2023-04-11T13:07:43.986Z,16.36
2023-04-11T13:10:45.682Z,16.29
2023-04-11T13:13:49.179Z,16.23
2023-04-11T13:16:51.058Z,16.18
2023-04-11T13:19:52.778Z,16.11
2023-04-11T13:22:54.420Z,16.08
2023-04-11T13:25:56.076Z,16.07
2023-04-11T13:28:58.115Z,16.04
2023-04-11T13:32:00.287Z,15.99
2023-04-11T13:35:03.240Z,15.92
2023-04-11T13:38:05.271Z,15.86
2023-04-11T13:41:07.007Z,15.82
2023-04-11T13:44:08.588Z,15.79
2023-04-11T13:47:10.306Z,15.75
2023-04-11T13:50:12.083Z,15.71
2023-04-11T13:53:13.864Z,15.63
2023-04-11T13:56:15.507Z,15.56
2023-04-11T13:59:17.329Z,15.46
2023-04-11T14:02:19.093Z,15.36
2023-04-11T14:05:21.408Z,15.27
2023-04-11T14:08:23.108Z,15.19
2023-04-11T14:11:24.937Z,15.14
2023-04-11T14:14:26.604Z,15.08
2023-04-11T14:17:29.269Z,15.03
2023-04-11T14:20:30.871Z,14.99
2023-04-11T14:23:32.623Z,14.95
2023-04-11T14:26:34.275Z,14.93
2023-04-11T14:29:36.971Z,14.89
2023-04-11T14:32:39.434Z,14.82
2023-04-11T14:35:42.173Z,14.77
2023-04-11T14:38:43.786Z,14.72
2023-04-11T14:41:47.041Z,14.67
2023-04-11T14:44:49.697Z,14.62
2023-04-11T14:47:51.783Z,14.57
2023-04-11T14:50:54.753Z,14.50
2023-04-11T14:53:56.954Z,14.47
2023-04-11T14:56:59.050Z,14.41
2023-04-11T15:00:01.133Z,14.35
2023-04-11T15:03:03.627Z,14.30
2023-04-11T15:06:06.197Z,14.25
2023-04-11T15:09:08.836Z,14.22
2023-04-11T15:12:10.668Z,14.15
2023-04-11T15:15:13.108Z,14.11
2023-04-11T15:18:32.801Z,14.04
2023-04-11T15:21:35.166Z,13.93
2023-04-11T15:24:37.153Z,13.81
2023-04-11T15:27:39.130Z,13.68
2023-04-11T15:30:49.885Z,13.54
2023-04-11T15:33:54.951Z,13.38
2023-04-11T15:36:57.170Z,13.25
2023-04-11T15:39:59.173Z,13.15
2023-04-11T15:43:01.431Z,13.04
2023-04-11T15:46:03.173Z,12.93
2023-04-11T15:49:05.237Z,12.81
2023-04-11T15:52:07.132Z,12.73
2023-04-11T15:55:09.760Z,12.64
2023-04-11T15:58:11.603Z,12.53
2023-04-11T16:01:23.546Z,12.42
2023-04-11T16:04:26.721Z,12.28
2023-04-11T16:07:30.355Z,12.18
2023-04-11T16:10:33.966Z,12.09
2023-04-11T16:13:37.091Z,12.00
2023-04-11T16:16:39.096Z,11.92
2023-04-11T16:19:41.824Z,11.84
2023-04-11T16:22:45.804Z,11.80
2023-04-11T16:25:47.532Z,11.75
2023-04-11T16:28:52.150Z,11.70
2023-04-11T16:31:54.853Z,11.67
2023-04-11T16:34:57.526Z,11.60
2023-04-11T16:38:00.453Z,11.57
2023-04-11T16:41:03.122Z,11.53
2023-04-11T16:44:10.720Z,11.49
2023-04-11T16:47:12.803Z,11.45
2023-04-11T16:50:15.298Z,11.42
2023-04-11T16:53:17.940Z,11.36
2023-04-11T16:56:19.673Z,11.27
2023-04-11T16:59:22.404Z,11.21
2023-04-11T17:02:24.657Z,11.14
2023-04-11T17:05:26.940Z,11.09
2023-04-11T17:08:29.399Z,11.01
2023-04-11T17:11:31.866Z,10.98
2023-04-11T17:14:36.047Z,10.99
2023-04-11T17:17:38.028Z,10.96
2023-04-11T17:20:40.971Z,10.94
2023-04-11T17:23:43.706Z,10.90
2023-04-11T17:26:45.891Z,10.86
2023-04-11T17:29:47.597Z,10.80
2023-04-11T17:32:49.400Z,10.74
2023-04-11T17:35:52.325Z,10.71
2023-04-11T17:38:54.282Z,10.68
2023-04-11T17:41:56.854Z,10.66
2023-04-11T17:45:03.767Z,10.63
2023-04-11T17:48:12.261Z,10.61
2023-04-11T17:51:13.961Z,10.58
2023-04-11T17:54:15.850Z,10.54
2023-04-11T17:57:18.396Z,10.50
2023-04-11T18:00:25.663Z,10.49
2023-04-11T18:03:27.715Z,10.46
2023-04-11T18:06:33.475Z,10.46
2023-04-11T18:09:35.216Z,10.43
2023-04-11T18:12:38.388Z,10.43
2023-04-11T18:15:40.422Z,10.43
2023-04-11T18:18:42.217Z,10.43
2023-04-11T18:21:44.096Z,10.42
2023-04-11T18:24:45.811Z,10.43
2023-04-11T18:27:47.591Z,10.43
2023-04-11T18:30:49.526Z,10.43
2023-04-11T18:33:51.407Z,10.43
2023-04-11T18:36:53.172Z,10.43
2023-04-11T18:39:55.123Z,10.44
2023-04-11T18:42:58.470Z,10.45
2023-04-11T18:46:01.452Z,10.44
2023-04-11T18:49:04.056Z,10.44
2023-04-11T18:52:07.274Z,10.43
2023-04-11T18:55:09.782Z,10.42
2023-04-11T18:58:13.596Z,10.43
2023-04-11T19:01:22.418Z,10.44
2023-04-11T19:04:24.728Z,10.44
2023-04-11T19:07:26.839Z,10.43
2023-04-11T19:10:28.822Z,10.45
2023-04-11T19:13:31.013Z,10.43
2023-04-11T19:16:33.613Z,10.42
2023-04-11T19:19:35.723Z,10.41
2023-04-11T19:22:40.069Z,10.40
2023-04-11T19:25:42.269Z,10.39
2023-04-11T19:28:44.372Z,10.39
2023-04-11T19:31:46.395Z,10.39
2023-04-11T19:34:48.994Z,10.39
2023-04-11T19:37:50.788Z,10.41
2023-04-11T19:40:52.818Z,10.45
2023-04-11T19:43:55.511Z,10.45
2023-04-11T19:46:57.423Z,10.44
2023-04-11T19:49:59.931Z,10.46
2023-04-11T19:53:01.637Z,10.47
2023-04-11T19:56:05.759Z,10.47
2023-04-11T19:59:07.415Z,10.46
2023-04-11T20:02:09.198Z,10.46
2023-04-11T20:05:13.135Z,10.46
2023-04-11T20:08:14.876Z,10.44
2023-04-11T20:11:16.701Z,10.43
2023-04-11T20:14:18.450Z,10.41
2023-04-11T20:17:20.471Z,10.39
2023-04-11T20:20:26.321Z,10.36
2023-04-11T20:23:30.189Z,10.33
2023-04-11T20:26:33.033Z,10.31
2023-04-11T20:29:37.706Z,10.28
2023-04-11T20:32:40.455Z,10.25
2023-04-11T20:35:42.889Z,10.24
2023-04-11T20:38:44.575Z,10.20
2023-04-11T20:41:46.302Z,10.16
2023-04-11T20:44:48.889Z,10.13
2023-04-11T20:47:52.526Z,10.12
2023-04-11T20:50:56.093Z,10.09
2023-04-11T20:53:58.569Z,10.08
2023-04-11T20:57:00.750Z,10.06
2023-04-11T21:00:13.301Z,10.04
2023-04-11T21:03:15.036Z,10.03
2023-04-11T21:06:17.251Z,10.01
2023-04-11T21:09:19.377Z,10.00
2023-04-11T21:12:21.258Z,9.99
2023-04-11T21:15:23.061Z,9.97
2023-04-11T21:18:24.948Z,9.96
2023-04-11T21:21:27.615Z,9.97
2023-04-11T21:24:33.812Z,9.96
2023-04-11T21:27:35.557Z,9.93
2023-04-11T21:30:39.001Z,9.91
2023-04-11T21:33:41.162Z,9.89
2023-04-11T21:36:42.946Z,9.87
2023-04-11T21:39:44.870Z,9.86
2023-04-11T21:42:46.621Z,9.85
2023-04-11T21:45:48.413Z,9.84
2023-04-11T21:48:51.463Z,9.83
2023-04-11T21:51:53.242Z,9.80
2023-04-11T21:54:55.167Z,9.80
2023-04-11T21:57:57.034Z,9.78
2023-04-11T22:21:50.350Z,9.75
2023-04-11T22:29:29.904Z,9.77
2023-04-11T22:37:00.904Z,9.65
2023-04-11T22:40:21.571Z,9.62
2023-04-11T23:08:22.639Z,9.30
2023-04-11T23:11:24.424Z,9.28
2023-04-11T23:14:30.471Z,9.27
2023-04-11T23:17:32.549Z,9.25
2023-04-11T23:20:36.420Z,9.23
2023-04-11T23:23:38.236Z,9.21
2023-04-11T23:26:40.520Z,9.18
2023-04-11T23:29:48.327Z,9.16
2023-04-11T23:32:50.541Z,9.13
2023-04-11T23:35:52.449Z,9.09
2023-04-11T23:38:54.503Z,9.05
2023-04-11T23:41:56.532Z,9.01
2023-04-11T23:44:58.225Z,8.99
2023-04-11T23:48:00.009Z,8.97
2023-04-11T23:51:01.899Z,8.96
2023-04-11T23:54:04.493Z,8.92
2023-04-11T23:57:06.507Z,8.90
